Airfield :
LOGIN :

Register | Disclaimer

   EN    FR    IT 

 










Legend :    VFR   Marginal VFR   IFR   Intensive IFR   Very Intensive IFR
Visi :
Ceiling :
>= 8 km
>= 3000ft
5 to 8 km
1000 to 3000 ft
1500m to 5 km
500 to 1000 ft
800 to 1500m
200 to 500 ft
< 800m
< 200 ft
Symbols :   Thunderstorms  Fog  Heavy snow  Heavy precipitations  Wind > 20 kt
SIGMETs :     Misc.  Thunderstorms  Icing  Turbulence  Mountain Waves  Volcanic Ashes






- Airport Elevation : 364 ft
- IATA code : FRA


EDDF - Frankfurt Int.

CURRENT METAR :
  • 170320Z AUTO 18007KT 140V220 9999 -RA SCT007 BKN028 OVC039 16/14 Q1011 TEMPO RA BKN008

EXPIRED METARs :
  • 170250Z AUTO 17008KT 9999 FEW008 BKN026 OVC049 16/14 Q1011
  • 170220Z AUTO 17007KT 9999 FEW021 16/14 Q1011 NOSIG
  • 170150Z AUTO 17007KT 9999 FEW033 16/13 Q1011 TEMPO RA
  • 170120Z AUTO 16005KT 9999 SCT024 BKN031 BKN040 16/13 Q1011 TEMPO RA
  • 170050Z AUTO 18006KT 9999 BKN027 OVC043 15/13 Q1011 NOSIG
  • 170020Z AUTO 17006KT 9999 SCT037 15/13 Q1011 NOSIG
  • 162350Z AUTO 17006KT 9999 FEW037 BKN044 15/13 Q1011 NOSIG
  • 162320Z AUTO 17005KT 9999 R18///// FEW045 15/13 Q1011 NOSIG
  • 162250Z AUTO 18004KT CAVOK 16/12 Q1011 NOSIG

TAF TAF EDDF
Valid from the 17 at 00:00 until the 18 at 06:00 UTC


162300Z 1700/1806 19006KT 9999 BKN030
PROB30
TEMPO 1703/1707 RA BKN009
TEMPO 1710/1806 SHRA SCT025CB
PROB30
TEMPO 1715/1721 22015G30KT 4000 TSRA
PROB30
TEMPO 1722/1806 1000 BCFG BKN003



MET'MAP, your aeronautical weather chart ! - Copyright ORBIFLY December 2007 - Disclaimer

ORBIFLY MET'MAP TEAM :

Programming & Development : Alexandra Zaïnal
Original concept : Baudouin d'Aumeries
Technical & hardware support : Manuel Goepfert
Assistance : Marc-Olivier Méhu




SOURCES & CREDITS :

   NOAA